• Join FlightAware (Why Join?)
  • Login
  • US Flag 
Rudolph Flight #1: Arrived! 
01:07AM EST


 

Airport Tracker/Info


-or-


 

Live Flight TrackerFlight Track Log ✈ N500NM ✈ 21-Mar-2014 ✈ KTMB - KTCL

Flight Track Log - Related Links

Times and Time Zones

All times are in EDT time to prevent confusion due to time zone crossing. See the N500NM flight status page for this flight to view local times or setup timezone preferences in your user account.

Time Position Orientation Groundspeed Altitude Reporting Facility
EDT Latitude Longitude Course Direction KTS MPH feet Rate Location/Type
04:11PM 25.6528 -80.4108 98° East 113 130 600  Level Miami Center
04:11PM 25.6511 -80.3969 98° East 104 120 1,000 1,080 Climbing Miami Center
04:12PM 25.6353 -80.3644 118° Southeast 107 123 2,300 1,020 Climbing Miami Center
04:13PM 25.6189 -80.3456 134° Southeast 106 122 3,100 900 Climbing Miami Center
04:14PM 25.5944 -80.3264 145° Southeast 111 128 4,100 1,020 Climbing Miami Center
04:15PM 25.5956 -80.3656 272° West 128 147 5,300 1,020 Climbing Miami Center
04:16PM 25.6222 -80.3825 330° Northwest 131 151 6,200 1,080 Climbing Miami Center
04:17PM 25.6639 -80.3858 356° North 124 143 7,500 1,020 Climbing Miami Center
04:18PM 25.6994 -80.3892 355° North 130 150 8,500 840 Climbing Miami Center
04:19PM 25.7369 -80.3881 North 132 152 9,300 720 Climbing Miami Center
04:20PM 25.7600 -80.3886 359° North 118 136 9,700 720 Climbing Miami Center
04:20PM 25.7639 -80.4028 287° West 128 147 10,000 480 Climbing Miami Center
04:21PM 25.7886 -80.4150 336° Northwest 130 150 10,200 480 Climbing Miami Center
04:21PM 25.7903 -80.4289 278° West 141 162 10,500 660 Climbing Miami Center
04:22PM 25.8172 -80.4411 338° Northwest 142 163 10,900 600 Climbing Miami Center
04:23PM 25.8478 -80.4675 322° Northwest 142 163 11,600 600 Climbing Miami Center
04:24PM 25.8764 -80.4936 321° Northwest 147 169 12,200 600 Climbing Miami Center
04:25PM 25.9072 -80.5200 322° Northwest 147 169 12,900 660 Climbing Miami Center
04:26PM 25.9356 -80.5464 320° Northwest 142 163 13,600 600 Climbing Miami Center
04:27PM 25.9664 -80.5750 320° Northwest 142 163 14,100 540 Climbing Miami Center
04:28PM 25.9969 -80.6014 322° Northwest 137 158 14,700 600 Climbing Miami Center
04:29PM 26.0297 -80.6303 322° Northwest 137 158 15,300 540 Climbing Miami Center
04:30PM 26.0603 -80.6567 322° Northwest 137 158 15,800 480 Climbing Miami Center
04:31PM 26.0950 -80.6853 324° Northwest 137 158 16,300 540 Climbing Miami Center
04:32PM 26.1278 -80.7142 322° Northwest 143 165 16,900 600 Climbing Miami Center
04:33PM 26.1644 -80.7431 325° Northwest 154 177 17,500 540 Climbing Miami Center
04:34PM 26.1969 -80.7767 317° Northwest 154 177 18,000 240 Climbing Miami Center
04:35PM 26.2339 -80.8081 323° Northwest 159 183 18,000  Level Miami Center
04:36PM 26.2683 -80.8439 317° Northwest 159 183 18,000  Level Miami Center
04:37PM 26.3133 -80.8825 322° Northwest 172 198 18,000  Level Miami Center
04:38PM 26.3478 -80.9114 323° Northwest 178 205 18,000  Level Miami Center
04:39PM 26.3906 -80.9500 321° Northwest 178 205 18,000  Level Miami Center
04:40PM 26.4275 -80.9814 323° Northwest 178 205 18,000  Level Miami Center
04:41PM 26.4786 -81.0133 331° Northwest 188 216 18,000  Level Miami Center
04:42PM 26.5197 -81.0403 330° Northwest 188 216 18,000  Level Miami Center
04:43PM 26.5711 -81.0700 333° Northwest 188 216 18,000  Level Miami Center
04:44PM 26.6161 -81.0994 330° Northwest 181 208 18,000  Level Miami Center
04:45PM 26.6611 -81.1289 330° Northwest 181 208 18,000  Level Miami Center
04:46PM 26.7083 -81.1633 327° Northwest 186 214 18,000  Level Miami Center
04:47PM 26.7553 -81.1931 331° Northwest 186 214 18,000  Level Miami Center
04:48PM 26.8006 -81.2203 332° Northwest 186 214 18,000  Level Miami Center
04:49PM 26.8414 -81.2497 327° Northwest 186 214 18,000  Level Miami Center
04:50PM 26.8864 -81.2792 330° Northwest 186 214 18,000  Level Miami Center
04:51PM 26.9333 -81.3089 331° Northwest 186 214 18,000  Level Miami Center
04:52PM 26.9783 -81.3411 327° Northwest 186 214 18,000  Level Miami Center
04:53PM 27.0236 -81.3683 332° Northwest 186 214 18,000  Level Miami Center
04:54PM 27.0664 -81.4003 326° Northwest 186 214 18,000  Level Miami Center
04:55PM 27.1114 -81.4300 330° Northwest 186 214 18,000  Level Miami Center
04:56PM 27.1561 -81.4622 327° Northwest 186 214 18,000  Level Miami Center
04:57PM 27.2014 -81.4897 332° Northwest 186 214 18,000  Level Miami Center
04:58PM 27.2553 -81.4964 354° North 186 214 18,000  Level Miami Center
04:59PM 27.3097 -81.4964 360° North 186 214 18,000  Level Miami Center
05:00PM 27.3639 -81.4986 358° North 186 214 18,000  Level Miami Center
05:01PM 27.4133 -81.5169 342° North 186 214 18,000  Level Miami Center
05:02PM 27.4628 -81.5375 340° North 186 214 18,000  Level Miami Center
05:03PM 27.5164 -81.5561 343° North 186 214 18,000  Level Miami Center
05:04PM 27.5592 -81.5908 324° Northwest 186 214 18,000  Level Miami Center
05:05PM 27.5975 -81.6297 318° Northwest 186 214 18,000  Level Miami Center
05:06PM 27.6358 -81.6711 316° Northwest 186 214 18,000  Level Miami Center
05:07PM 27.6742 -81.7103 318° Northwest 186 214 18,000  Level Miami Center
05:08PM 27.7186 -81.7519 320° Northwest 186 214 18,000  Level Miami Center
05:09PM 27.7589 -81.7914 319° Northwest 186 214 18,000  Level Miami Center
05:10PM 27.7972 -81.8306 318° Northwest 186 214 18,000  Level Miami Center
05:11PM 27.8397 -81.8675 322° Northwest 186 214 18,000  Level Miami Center
05:12PM 27.8803 -81.9069 319° Northwest 191 220 18,000  Level Miami Center
05:16PM 28.0219 -82.0461 319° Northwest 189 217 18,000  Level Jacksonville Center
05:17PM 28.0639 -82.0833 322° Northwest 189 217 18,000  Level Jacksonville Center
05:18PM 28.1058 -82.1208 322° Northwest 194 223 18,000  Level Jacksonville Center
05:19PM 28.1478 -82.1581 322° Northwest 194 223 18,000  Level Jacksonville Center
05:20PM 28.1878 -82.1956 320° Northwest 194 223 18,000  Level Jacksonville Center
05:21PM 28.2297 -82.2328 322° Northwest 189 217 18,000  Level Jacksonville Center
05:22PM 28.2717 -82.2703 322° Northwest 189 217 18,000  Level Jacksonville Center
05:23PM 28.3114 -82.3056 322° Northwest 189 217 18,000  Level Jacksonville Center
05:24PM 28.3533 -82.3431 322° Northwest 189 217 18,000  Level Jacksonville Center
05:25PM 28.3931 -82.3806 320° Northwest 189 217 18,000  Level Jacksonville Center
05:26PM 28.4350 -82.4181 322° Northwest 189 217 18,000  Level Jacksonville Center
05:27PM 28.4747 -82.4556 320° Northwest 184 212 18,000  Level Jacksonville Center
05:28PM 28.5125 -82.4981 315° West 189 217 18,000  Level Jacksonville Center
05:29PM 28.5542 -82.5356 322° Northwest 189 217 18,000  Level Jacksonville Center
05:30PM 28.5919 -82.5758 317° Northwest 189 217 18,000  Level Jacksonville Center
05:31PM 28.6317 -82.6136 320° Northwest 189 217 18,000  Level Jacksonville Center
05:32PM 28.6672 -82.6536 315° West 189 217 18,000  Level Jacksonville Center
05:33PM 28.7092 -82.6983 317° Northwest 184 212 18,000  Level Jacksonville Center
05:34PM 28.7489 -82.7364 320° Northwest 184 212 18,000  Level Jacksonville Center
05:35PM 28.7883 -82.7764 318° Northwest 189 217 18,000  Level Jacksonville Center
05:36PM 28.8261 -82.8144 319° Northwest 189 217 18,000  Level Jacksonville Center
05:37PM 28.8636 -82.8547 317° Northwest 189 217 18,000  Level Jacksonville Center
05:38PM 28.9011 -82.8903 320° Northwest 189 217 18,000  Level Jacksonville Center
05:39PM 28.9408 -82.9331 317° Northwest 189 217 18,000  Level Jacksonville Center
05:40PM 28.9783 -82.9708 319° Northwest 184 212 18,000  Level Jacksonville Center
05:41PM 29.0181 -83.0114 318° Northwest 184 212 18,000  Level Jacksonville Center
05:42PM 29.0556 -83.0494 318° Northwest 184 212 18,000  Level Jacksonville Center
05:43PM 29.0953 -83.0897 318° Northwest 184 212 18,000  Level Jacksonville Center
05:44PM 29.1306 -83.1303 315° West 184 212 18,000  Level Jacksonville Center
05:45PM 29.1703 -83.1683 320° Northwest 184 212 18,000  Level Jacksonville Center
05:46PM 29.2097 -83.2089 318° Northwest 184 212 18,000  Level Jacksonville Center
05:47PM 29.2472 -83.2494 317° Northwest 184 212 18,000  Level Jacksonville Center
05:48PM 29.2867 -83.2878 320° Northwest 184 212 18,000  Level Jacksonville Center
05:49PM 29.3242 -83.3286 316° Northwest 184 212 18,000  Level Jacksonville Center
05:50PM 29.3636 -83.3667 320° Northwest 184 212 18,000  Level Jacksonville Center
05:51PM 29.4011 -83.4075 317° Northwest 184 212 18,000  Level Jacksonville Center
05:52PM 29.4386 -83.4458 318° Northwest 184 212 18,000  Level Jacksonville Center
05:53PM 29.4758 -83.4867 316° Northwest 184 212 18,000  Level Jacksonville Center
05:54PM 29.5156 -83.5250 320° Northwest 184 212 18,000  Level Jacksonville Center
05:55PM 29.5528 -83.5658 316° Northwest 184 212 18,000  Level Jacksonville Center
05:56PM 29.5903 -83.6042 318° Northwest 189 217 18,000  Level Jacksonville Center
05:57PM 29.6275 -83.6453 316° Northwest 184 212 18,000  Level Jacksonville Center
05:58PM 29.6650 -83.6836 318° Northwest 184 212 18,000  Level Jacksonville Center
05:59PM 29.7022 -83.7222 318° Northwest 184 212 18,000  Level Jacksonville Center
06:00PM 29.7394 -83.7633 316° Northwest 184 212 18,000  Level Jacksonville Center
06:01PM 29.7789 -83.7994 322° Northwest 184 212 18,000  Level Jacksonville Center
06:02PM 29.8142 -83.8406 315° West 184 212 18,000  Level Jacksonville Center
06:03PM 29.8494 -83.8767 318° Northwest 184 212 18,000  Level Jacksonville Center
06:04PM 29.8867 -83.9156 318° Northwest 184 212 18,000  Level Jacksonville Center
06:05PM 29.9239 -83.9542 318° Northwest 184 212 18,000  Level Jacksonville Center
06:06PM 29.9633 -83.9956 318° Northwest 184 212 18,000  Level Jacksonville Center
06:07PM 29.9983 -84.0342 316° Northwest 184 212 18,000  Level Jacksonville Center
06:08PM 30.0356 -84.0731 318° Northwest 184 212 18,000  Level Jacksonville Center
06:09PM 30.0747 -84.1144 318° Northwest 184 212 18,000  Level Jacksonville Center
06:10PM 30.1119 -84.1556 316° Northwest 184 212 18,000  Level Jacksonville Center
06:11PM 30.1472 -84.1922 318° Northwest 184 212 18,000  Level Jacksonville Center
06:12PM 30.1886 -84.2336 319° Northwest 184 212 18,000  Level Jacksonville Center
06:13PM 30.2214 -84.2725 314° West 184 212 18,000  Level Jacksonville Center
06:14PM 30.2628 -84.3114 321° Northwest 184 212 18,000  Level Jacksonville Center
06:15PM 30.2978 -84.3528 314° West 184 212 18,000  Level Jacksonville Center
06:16PM 30.3350 -84.3919 318° Northwest 184 212 18,000  Level Jacksonville Center
06:17PM 30.3719 -84.4336 316° Northwest 184 212 18,000  Level Jacksonville Center
06:18PM 30.4092 -84.4725 318° Northwest 184 212 18,000  Level Jacksonville Center
06:19PM 30.4483 -84.5142 317° Northwest 184 212 18,000  Level Jacksonville Center
06:20PM 30.4853 -84.5533 318° Northwest 184 212 18,000  Level Jacksonville Center
06:21PM 30.5225 -84.5928 318° Northwest 184 212 18,000  Level Jacksonville Center
06:22PM 30.5575 -84.6319 316° Northwest 184 212 18,000  Level Jacksonville Center
06:23PM 30.5964 -84.6711 319° Northwest 184 212 18,000  Level Jacksonville Center
06:24PM 30.6375 -84.7178 316° Northwest 184 212 18,000  Level Jacksonville Center
06:25PM 30.6747 -84.7572 318° Northwest 184 212 18,000  Level Jacksonville Center
06:26PM 30.7136 -84.7967 319° Northwest 184 212 18,000  Level Jacksonville Center
06:27PM 30.7486 -84.8361 316° Northwest 184 212 18,000  Level Jacksonville Center
06:28PM 30.7856 -84.8778 316° Northwest 184 212 18,000  Level Jacksonville Center
06:29PM 30.8225 -84.9150 319° Northwest 184 212 18,000  Level Jacksonville Center
06:30PM 30.8594 -84.9569 316° Northwest 184 212 18,000  Level Jacksonville Center
06:31PM 30.8944 -84.9939 318° Northwest 184 212 18,000  Level Jacksonville Center
06:32PM 30.9314 -85.0336 317° Northwest 184 212 18,000  Level Jacksonville Center
06:33PM 30.9661 -85.0756 314° West 179 206 18,000  Level Jacksonville Center
06:34PM 31.0031 -85.1103 321° Northwest 179 206 18,000  Level Jacksonville Center
06:35PM 31.0400 -85.1500 317° Northwest 179 206 18,000  Level Jacksonville Center
06:36PM 31.0767 -85.1897 317° Northwest 179 206 18,000  Level Jacksonville Center
06:37PM 31.1136 -85.2317 316° Northwest 179 206 18,000  Level Jacksonville Center
06:38PM 31.1464 -85.2689 316° Northwest 174 200 18,000  Level Jacksonville Center
06:39PM 31.1831 -85.3064 319° Northwest 169 194 18,000  Level Jacksonville Center
06:40PM 31.2181 -85.3411 320° Northwest 169 194 18,000  Level Jacksonville Center
06:41PM 31.2528 -85.3833 314° West 169 194 18,000  Level Jacksonville Center
06:42PM 31.3128 -85.4508 316° Northwest 173 199 18,000  Level Atlanta Center
06:43PM 31.3500 -85.4906 318° Northwest 178 205 18,000  Level Atlanta Center
06:44PM 31.3869 -85.5325 316° Northwest 178 205 18,000  Level Atlanta Center
06:45PM 31.4219 -85.5694 318° Northwest 172 198 18,000  Level Atlanta Center
06:46PM 31.4569 -85.6092 316° Northwest 172 198 18,000  Level Atlanta Center
06:47PM 31.4919 -85.6486 316° Northwest 172 198 18,000  Level Atlanta Center
06:48PM 31.5269 -85.6881 316° Northwest 172 198 18,000  Level Atlanta Center
06:49PM 31.5639 -85.7278 318° Northwest 172 198 18,000  Level Atlanta Center
06:50PM 31.5989 -85.7675 316° Northwest 172 198 18,000  Level Atlanta Center
06:51PM 31.6358 -85.8072 318° Northwest 172 198 18,000  Level Atlanta Center
06:52PM 31.6728 -85.8469 318° Northwest 172 198 18,000  Level Atlanta Center
06:53PM 31.7078 -85.8867 316° Northwest 172 198 18,000  Level Atlanta Center
06:54PM 31.7322 -85.9239 308° West 166 191 18,000  Level Atlanta Center
06:55PM 31.7733 -85.9639 320° Northwest 166 191 18,000  Level Atlanta Center
06:56PM 31.8103 -86.0036 318° Northwest 173 199 18,000  Level Atlanta Center
06:57PM 31.8472 -86.0436 317° Northwest 173 199 18,000 -120 Level Atlanta Center
06:58PM 31.8883 -86.0911 316° Northwest 178 205 17,800 -420 Descending Atlanta Center
06:59PM 31.9292 -86.1361 317° Northwest 184 212 17,200 -600 Descending Atlanta Center
07:00PM 31.9703 -86.1811 317° Northwest 191 220 16,600 -600 Descending Atlanta Center
07:01PM 32.0131 -86.2286 317° Northwest 197 227 16,000 -600 Descending Atlanta Center
07:02PM 32.0542 -86.2761 316° Northwest 203 234 15,400 -600 Descending Atlanta Center
07:03PM 32.0992 -86.3264 317° Northwest 203 234 14,800 -600 Descending Atlanta Center
07:04PM 32.1358 -86.3689 316° Northwest 203 234 14,300 -600 Descending Atlanta Center
07:05PM 32.1786 -86.4167 317° Northwest 208 239 13,700 -660 Descending Atlanta Center
07:06PM 32.2197 -86.4619 317° Northwest 208 239 13,000 -660 Descending Atlanta Center
07:07PM 32.2606 -86.5072 317° Northwest 208 239 12,400 -600 Descending Atlanta Center
07:08PM 32.3014 -86.5528 317° Northwest 203 234 11,900 -600 Descending Atlanta Center
07:09PM 32.3422 -86.5981 317° Northwest 203 234 11,300 -600 Descending Atlanta Center
07:10PM 32.3808 -86.6433 315° West 196 226 10,700 -600 Descending Atlanta Center
07:11PM 32.4194 -86.6889 315° West 196 226 10,100 -600 Descending Atlanta Center
07:12PM 32.4583 -86.7319 317° Northwest 196 226 9,500 -600 Descending Atlanta Center
07:13PM 32.4969 -86.7750 317° Northwest 196 226 8,900 -600 Descending Atlanta Center
07:14PM 32.5356 -86.8206 315° West 196 226 8,300 -480 Descending Atlanta Center
07:15PM 32.5742 -86.8636 317° Northwest 196 226 8,000 -180 Descending Atlanta Center
07:16PM 32.6089 -86.9042 315° West 191 220 8,000  Level Atlanta Center
07:17PM 32.6433 -86.9422 317° Northwest 180 207 8,000  Level Atlanta Center
07:18PM 32.6781 -86.9803 317° Northwest 175 201 8,000  Level Atlanta Center
07:19PM 32.7103 -87.0211 313° West 170 196 8,000  Level Atlanta Center
07:20PM 32.7450 -87.0617 316° Northwest 170 196 8,000  Level Atlanta Center
07:21PM 32.7669 -87.0919 311° West 174 200 8,000 -120 Level Atlanta Center
07:21PM 32.7794 -87.0975 340° North 170 196 7,900 -420 Descending Atlanta Center
07:21PM 32.7833 -87.1100 290° West 178 205 7,800 -600 Descending Atlanta Center
07:22PM 32.8219 -87.1533 317° Northwest 187 215 7,300 -540 Descending Atlanta Center
07:23PM 32.8567 -87.1842 323° Northwest 175 201 6,800 -660 Descending Atlanta Center
07:23PM 32.8644 -87.2042 295° West 196 226 6,600 -600 Descending Atlanta Center
07:24PM 32.8931 -87.2325 320° Northwest 186 214 6,200 -600 Descending Atlanta Center
07:24PM 32.9050 -87.2478 313° West 190 219 6,000 -240 Descending Atlanta Center
07:25PM 32.9314 -87.2736 321° Northwest 186 214 6,000  Level Atlanta Center
07:25PM 32.9414 -87.2911 304° West 188 216 6,000  Level Atlanta Center
07:26PM 32.9658 -87.3169 318° Northwest 186 214 6,000 60 Level Atlanta Center
07:27PM 32.9758 -87.3322 308° West 176 203 6,100  Climbing Atlanta Center
07:27PM 33.0003 -87.3553 322° Northwest 181 208 6,000 -120 Descending Atlanta Center
07:28PM 33.0103 -87.3756 300° West 175 201 6,000 -600 Level Atlanta Center
07:28PM 33.0428 -87.4039 324° Northwest 181 208 5,400 -840 Descending Atlanta Center
07:29PM 33.0486 -87.4167 299° West 188 216 5,200 -840 Descending Atlanta Center
07:29PM 33.0811 -87.4500 319° Northwest 191 220 4,600 -840 Descending Atlanta Center
07:30PM 33.0931 -87.4728 302° West 201 231 4,300 -840 Descending Atlanta Center
07:30PM 33.1217 -87.4964 325° Northwest 191 220 3,800 -840 Descending Atlanta Center
07:31PM 33.1317 -87.5142 304° West 191 220 3,500 -660 Descending Atlanta Center
07:32PM 33.1772 -87.5258 348° North 202 232 3,000 -480 Descending Atlanta Center
07:33PM 33.2156 -87.4925 36° Northeast 174 200 2,600 -600 Descending Atlanta Center
07:34PM 33.2586 -87.4544 36° Northeast 186 214 1,800 -420 Descending Atlanta Center
07:35PM 33.2911 -87.4856 321° Northwest 160 184 1,800  Level Atlanta Center
07:36PM 33.2961 -87.5256 279° West 148 170 1,800 -180 Level Atlanta Center
07:37PM 33.2703 -87.5544 223° Southwest 124 143 1,500 -360 Descending Atlanta Center
07:38PM 33.2486 -87.5833 228° Southwest 106 122 1,100 -240 Descending Atlanta Center
07:39PM 33.2464 -87.5858 223° Southwest 106 122 1,100  Level Atlanta Center